EBCI - Charleroi/Gosselies, Belgium
Distance de la station: NE 18km
Mise à jour: 21/02/2018 19:50
partiellement nuageux
partiellement nuageux
 Wind from NNE
Vent: NNE 15 km/h
Température: 0°C
Température ressentie: -4°C
Point de rosée: -4°C
Humidité: 75%
Baromètre: 1022 hPa
Ciel: partiellement nuageux
Visibilité: 7 km
2018/02/21 18:50 EBCI 211850Z 03008KT 7000 NSC 00/M04 Q1022 NOSIG
EBFS - Florennes, Belgium
Distance de la station: ESE 31km
Mise à jour: 21/02/2018 19:55
clair
clair
 Wind from NNE
Vent: NNE 13 km/h
Température: -1°C
Température ressentie: -6°C
Point de rosée: -5°C
Humidité: 75%
Baromètre: 1022 hPa
Ciel: clair
Visibilité: 8 km
2018/02/21 18:55 EBFS 211855Z AUTO 03007KT 8000 NCD M01/M05 Q1022 BLU
EBCV - Chievres, Belgium
Distance de la station: NO 40km
Mise à jour: 21/02/2018 19:55
clair
clair
 Wind from NNE
Vent: NNE 11 km/h
Température: 1°C
Température ressentie: -2°C
Point de rosée: -3°C
Humidité: 75%
Baromètre: 1023 hPa
Ciel: clair
Visibilité: 5 km
2018/02/21 18:55 EBCV 211855Z AUTO 03006KT 5000 NCD 01/M03 Q1023 WHT
 
EBBE - Beauvechain, Belgium
Distance de la station: NE 57km
Mise à jour: 21/02/2018 19:55
clair
clair
 Wind from NE
Vent: NE 9 km/h
Température: 0°C
Température ressentie: -3°C
Point de rosée: -5°C
Humidité: 69%
Baromètre: 1023 hPa
Ciel: clair
Visibilité: 9 km
2018/02/21 18:55 EBBE 211855Z AUTO 04005KT 9000 NCD M00/M05 Q1023 BLU
EBBR - Brussels National, Belgium
Distance de la station: NNE 63km
Mise à jour: 21/02/2018 19:50
partiellement nuageux
partiellement nuageux
 Wind from NNE
Vent: NNE 7 km/h
Température: 0°C
Température ressentie: -3°C
Point de rosée: -4°C
Humidité: 75%
Baromètre: 1024 hPa
Ciel: partiellement nuageux
Visibilité: 7 km
2018/02/21 18:50 EBBR 211850Z 02004KT 7000 NSC M00/M04 Q1024 NOSIG
LFQI - Cambrai/Epinoy, France
Distance de la station: O 82km
Mise à jour: 29/06/2012 12:30
NOT Current

 Wind from SO
Vent: SO 17 km/h
Température: 18°C
Point de rosée: 14°C
Humidité: 78%
Baromètre: 1009 hPa
2012/06/29 10:30 LFQI 291030Z AUTO 22009KT //// // ///////// 18/14 Q1009
 
LFQQ - Lille/Lesquin, France
Distance de la station: ONO 86km
Mise à jour: 21/02/2018 20:00
partiellement nuageux
partiellement nuageux
 Wind from NNE
Vent: NNE 20 km/h
Température: 2°C
Température ressentie: -3°C
Point de rosée: -3°C
Humidité: 70%
Baromètre: 1024 hPa
Ciel: partiellement nuageux
Visibilité: 6 km
2018/02/21 19:00 LFQQ 211900Z AUTO 02011KT 6000 NSC 02/M03 Q1024 NOSIG
EBLG - Bierset/Liege, Belgium
Distance de la station: ENE 89km
Mise à jour: 21/02/2018 19:50
clair
clair
 Wind from NNE
Vent: NNE 7 km/h
Température: -1°C
Température ressentie: -4°C
Point de rosée: -4°C
Humidité: 80%
Baromètre: 1022 hPa
Résumé: clair
Visibilité: greater than 10 km
2018/02/21 18:50 EBLG 211850Z 02004KT CAVOK M01/M04 Q1022 NOSIG
EBDT - Schaffen, Belgium
Distance de la station: NE 93km
Mise à jour: 21/02/2018 19:55
clair
clair
 Wind from NNE
Vent: NNE 11 km/h
Température: 0°C
Température ressentie: -4°C
Point de rosée: -5°C
Humidité: 69%
Baromètre: 1024 hPa
Ciel: clair
Visibilité: 7 km
2018/02/21 18:55 EBDT 211855Z AUTO 03006KT 7000 NCD M00/M05 Q1024 WHT
 
EBAW - Antwerp/Deurne, Belgium
Distance de la station: N 96km
Mise à jour: 21/02/2018 19:50
partiellement nuageux
partiellement nuageux
 Wind from NNE
Vent: NNE 9 km/h
Température: 2°C
Température ressentie: -1°C
Point de rosée: -3°C
Humidité: 70%
Baromètre: 1024 hPa
Ciel: partiellement nuageux
Visibilité: 7 km
2018/02/21 18:50 EBAW 211850Z 02005KT 7000 NSC 02/M03 Q1024 NOSIG
LFAQ - Bray, France
Distance de la station: OSO 119km
Mise à jour: 21/02/2018 20:00
brume, partiellement nuageux
brume, partiellement nuageux
 Wind from NNE
Vent: NNE 20 km/h
Température: 1°C
Température ressentie: -4°C
Point de rosée: -2°C
Humidité: 81%
Baromètre: 1022 hPa
Résumé: brume
Ciel: partiellement nuageux
Visibilité: 5 km
2018/02/21 19:00 LFAQ 211900Z AUTO 02011KT 4900 BR NSC 01/M02 Q1022
LFSR - Reims/Champagne, France
Distance de la station: S 120km
Mise à jour: 16/04/2012 09:00
NOT Current
partiellement nuageux
partiellement nuageux
 Wind from N
Vent: N 17 km/h
Température: 4°C
Température ressentie: 0°C
Point de rosée: 0°C
Humidité: 75%
Baromètre: 1022 hPa
Ciel: partiellement nuageux
Visibilité: 10 km
2012/04/16 07:00 LFSR 160700Z AUTO 01009KT 340V070 9999 NSC 04/00 Q1022
 
EHWO - Woensdrecht, Netherlands
Distance de la station: N 122km
Mise à jour: 21/02/2018 19:55
brume, clair
brume, clair
 Wind from NNE
Vent: NNE 9 km/h
Température: 0°C
Température ressentie: -3°C
Point de rosée: -3°C
Humidité: 80%
Baromètre: 1024 hPa
Résumé: brume
Ciel: clair
Visibilité: 7 km
2018/02/21 18:55 EHWO 211855Z AUTO 03005KT 360V060 7000 HZ NCD M00/M03 Q1024 WHT
EHBK - Zuid-Limburg, Netherlands
Distance de la station: ENE 123km
Mise à jour: 21/02/2018 19:55
clair
clair
 Wind from NNE
Vent: NNE 17 km/h
Température: 0°C
Température ressentie: -4°C
Point de rosée: -4°C
Humidité: 75%
Baromètre: 1023 hPa
Ciel: clair
Visibilité: 10 km
2018/02/21 18:55 EHBK 211855Z AUTO 02009KT 9999 NCD 00/M04 Q1023 NOSIG
EBBL - Kleine-Brogel, Belgium
Distance de la station: NE 124km
Mise à jour: 21/02/2018 19:55
clair
clair
 Wind from NNE
Vent: NNE 7 km/h
Température: 0°C
Température ressentie: -3°C
Point de rosée: -5°C
Humidité: 69%
Baromètre: 1024 hPa
Ciel: clair
Visibilité: 10 km
2018/02/21 18:55 EBBL 211855Z AUTO 03004KT 9999 NCD M00/M05 Q1024 BLU
 
EBLB - Elsenborn, Belgium
Distance de la station: E 135km
Mise à jour: 21/02/2018 19:55
couvert
couvert
 Wind from NE
Vent: NE 9 km/h
Température: -3°C
Température ressentie: -7°C
Point de rosée: -7°C
Humidité: 74%
Baromètre: 1020 hPa
Ciel: couvert
Visibilité: 7 km
Détails du ciel: couvert 3658 m
2018/02/21 18:55 EBLB 211855Z AUTO 05005KT 7000 OVC120/// M03/M07 Q1020 WHT
EBOS - Oostende Airport, Belgium
Distance de la station: NO 136km
Mise à jour: 21/02/2018 19:50
partiellement nuageux
partiellement nuageux
 Wind from NE
Vent: NE 19 km/h
Température: 3°C
Température ressentie: -2°C
Point de rosée: -2°C
Humidité: 70%
Baromètre: 1025 hPa
Ciel: partiellement nuageux
Visibilité: 7 km
2018/02/21 18:50 EBOS 211850Z 04010KT 7000 NSC 03/M02 Q1025 NOSIG
EBFN - Koksijde, Belgium
Distance de la station: NO 140km
Mise à jour: 21/02/2018 19:25
quelques nuages
quelques nuages
 Wind from NE
Vent: NE 15 km/h
Température: 2°C
Température ressentie: -2°C
Point de rosée: -1°C
Humidité: 81%
Baromètre: 1025 hPa
Ciel: quelques nuages
Visibilité: 5 km
Détails du ciel: quelques nuages 7620 m
2018/02/21 18:25 EBFN 211825Z 04008KT 5000 FEW250 02/M01 Q1025 WHT WHT TEMPO GRN
 
ETNG - Geilenkirchen, Germany
Distance de la station: ENE 142km
Mise à jour: 21/02/2018 19:50
clair
clair
 Wind from NNE
Vent: NNE 11 km/h
Température: 0°C
Température ressentie: -4°C
Point de rosée: -5°C
Humidité: 69%
Baromètre: 1023 hPa
Résumé: clair
Visibilité: greater than 10 km
2018/02/21 18:50 ETNG 211850Z 02006KT CAVOK 00/M05 Q1023 NOSIG
EHGR - Gilze-Rijen, Netherlands
Distance de la station: NNE 143km
Mise à jour: 21/02/2018 19:55
brume, clair
brume, clair
 Wind from NNE
Vent: NNE 11 km/h
Température: -1°C
Température ressentie: -5°C
Point de rosée: -4°C
Humidité: 80%
Baromètre: 1025 hPa
Résumé: brume
Ciel: clair
Visibilité: 9 km
2018/02/21 18:55 EHGR 211855Z AUTO 02006KT 360V060 9000 HZ NCD M01/M04 Q1025 BLU
EHEH - Eindhoven, Netherlands
Distance de la station: NNE 147km
Mise à jour: 21/02/2018 19:55
clair
clair
 Wind from NNE
Vent: NNE 15 km/h
Température: 0°C
Température ressentie: -4°C
Point de rosée: -4°C
Humidité: 75%
Baromètre: 1024 hPa
Ciel: clair
Visibilité: 10 km
2018/02/21 18:55 EHEH 211855Z AUTO 03008KT 9999 NCD M00/M04 Q1024 BLU 04008KT CAVOK
 
ELLX - Luxembourg, Luxembourg
Distance de la station: ESE 162km
Mise à jour: 21/02/2018 19:50
partiellement nuageux
partiellement nuageux
 Wind from NNE
Vent: NNE 24 km/h
Température: 0°C
Température ressentie: -6°C
Point de rosée: -4°C
Humidité: 75%
Baromètre: 1019 hPa
Ciel: partiellement nuageux
Visibilité: 6 km
2018/02/21 18:50 ELLX 211850Z 03013KT 6000 NSC 00/M04 Q1019 R06/190050 NOSIG
EHVK - Volkel, Netherlands
Distance de la station: NE 174km
Mise à jour: 21/02/2018 19:55
clair
clair
 Wind from NNE
Vent: NNE 7 km/h
Température: 0°C
Température ressentie: -3°C
Point de rosée: -4°C
Humidité: 75%
Baromètre: 1024 hPa
Ciel: clair
Visibilité: 10 km
2018/02/21 18:55 EHVK 211855Z AUTO 02004KT 9999 NCD 00/M04 Q1024 BLU 02004KT CAVOK
LFOK - Chalons/Vatry, France
Distance de la station: S 174km
Mise à jour: 21/02/2018 20:00
partiellement nuageux
partiellement nuageux
 Wind from N
Vent: N 22 km/h
Température: 1°C
Température ressentie: -4°C
Point de rosée: -2°C
Humidité: 81%
Baromètre: 1019 hPa
Ciel: partiellement nuageux
Visibilité: 6 km
2018/02/21 19:00 LFOK 211900Z AUTO 36012KT 6000 NSC 01/M02 Q1019 NOSIG

Script from Saratoga-Weather.org